Sandwich, Illinois
Current Conditions -  °F | °C
As of 1:52 AM on Saturday 25 Oct 2014 (Local Time) from KARR Reporting Station
Clear Clear  
Wind Chill: 54°   Ceiling: Unl
Heat Index: 54°   Visibility: 8mi
Dew Point: 48°   Wind: 3mph
Humidity: 80%   Direction: 230°SW
Pressure: 29.91"   Gusts: NA
Location:  41.65°N, 88.62°W
Report Text: KARR 250652Z AUTO 23003KT 8SM CLR 12/09 A2991 RMK AO2 SLP128 T01220089
Loading
Personal Weather Stations






























Interactive Weather Map
Tropical Storm Tracking
New forecast layout! Learn more

10-Day Weather Forecast

Advertisements
Track Severe Weather on mobile